THIS IS HOW THIS WEEK’S L.A. WEATHER HAS BEEN WIDELY DESCRIBED.

Weather Conditions for:
Torrance, Zamperini Field Airport, CA (KTOA)
Elev: 102 ft; Latitude: 33.80; Longitude: -118.33333

Time Temp. Relative Wind Wind
Humidity Direction Speed
(PDT) (f) (%) (mph)
29 Mar 7:47 pm PDT 63 88 WNW 10
29 Mar 6:50 pm PDT 66 64 WNW 9
29 Mar 5:47 pm PDT 68 73 WNW 10
29 Mar 4:47 pm PDT 70 69 WNW 14
29 Mar 3:50 pm PDT 70 69 WNW 14
29 Mar 2:55 pm PDT 72 65 W 12
29 Mar 1:50 pm PDT 73 61 NW 12
29 Mar 12:50 pm PDT 72 69 NW 9
29 Mar 11:49 am PDT 70 69 WNW 12
29 Mar 10:47 am PDT 68 73 WNW 12
29 Mar 9:47 am PDT 70 69 VRBL 6
29 Mar 9:25 am PDT 66 78
29 Mar 8:47 am PDT 63 94
29 Mar 7:50 am PDT 61 94 ESE 6
29 Mar 6:47 am PDT 59 94 CALM
28 Mar 7:47 pm PDT 63 88 WNW 9
28 Mar 6:55 pm PDT 64 83 NW 12
28 Mar 5:47 pm PDT 68 73 NW 12
28 Mar 4:53 pm PDT 72 69 NW 17
28 Mar 2:47 pm PDT 75 61 WNW 12
28 Mar 1:49 pm PDT 75 61 NW 12
28 Mar 12:53 pm PDT 73 65 NW 12
28 Mar 11:47 am PDT 75 57 WNW 12
28 Mar 11:22 am PDT 77 54 E 7
28 Mar 10:49 am PDT 75 57 VRBL 6
28 Mar 9:47 am PDT 70 73 VRBL 6
28 Mar 9:11 am PDT 68 78 VRBL 6
28 Mar 8:47 am PDT 64 88 VRBL 6
28 Mar 7:47 am PDT 59 88 CALM
28 Mar 6:53 am PDT 57 82 VRBL 6
27 Mar 7:47 pm PDT 77 24 W 8
27 Mar 6:47 pm PDT 77 36 NW 17
27 Mar 5:47 pm PDT 77 36 WNW 14
27 Mar 4:47 pm PDT 75 44 NW 17
27 Mar 3:50 pm PDT 75 61 NW 17
27 Mar 2:50 pm PDT 79 51 NW 12
27 Mar 1:57 pm PDT 81 51 NW 12
27 Mar 12:47 pm PDT 84 40 NW 9
27 Mar 11:47 am PDT 86 27 VRBL 6
27 Mar 10:47 am PDT 82 35 VRBL 6
27 Mar 9:47 am PDT 77 47 VRBL 7
27 Mar 8:47 am PDT 72 53 CALM
27 Mar 7:47 am PDT 64 49 CALM
27 Mar 6:50 am PDT 59 59 CALM
26 Mar 7:47 pm PDT 77 26 WNW 12
26 Mar 6:47 pm PDT 79 21 W 12
26 Mar 5:49 pm PDT 81 23 WNW 13
26 Mar 4:50 pm PDT 82 23 WNW 12
26 Mar 3:52 pm PDT 82 40 WNW 12
26 Mar 2:47 pm PDT 81 54 WNW 12
26 Mar 1:47 pm PDT 84 45 NW 12
26 Mar 1:25 pm PDT 90 36 NW 12
26 Mar 12:47 pm PDT 90 17 WNW 9
26 Mar 10:49 am PDT 86 18 CALM
26 Mar 9:52 am PDT 81 23 CALM
26 Mar 8:50 am PDT 75 27 CALM
26 Mar 7:50 am PDT 64 52 CALM
26 Mar 6:50 am PDT 59 63 CALM
25 Mar 7:50 pm PDT 70 43 WNW 12
25 Mar 5:47 pm PDT 73 38 W 17
25 Mar 4:47 pm PDT 75 39 WNW 17
25 Mar 3:48 pm PDT 75 47 WNW 12
25 Mar 2:47 pm PDT 75 57 WNW 12
25 Mar 1:47 pm PDT 81 39 NW 12
25 Mar 11:50 am PDT 79 39 VRBL 6
25 Mar 10:47 am PDT 75 54 VRBL 6
25 Mar 9:47 am PDT 70 69 VRBL 7
25 Mar 8:50 am PDT 66 78 VRBL 6
25 Mar 7:47 am PDT 59 82 CALM
25 Mar 6:47 am PDT 57 94 CALM
24 Mar 7:47 pm PDT 70 40 WNW 12
24 Mar 6:47 pm PDT 70 43 WNW 12
24 Mar 5:47 pm PDT 73 33 WNW 8
24 Mar 4:47 pm PDT 73 36 WNW 8
24 Mar 3:47 pm PDT 75 31 WNW 12
24 Mar 2:47 pm PDT 72 61 WNW 12
24 Mar 1:47 pm PDT 73 57 WNW 12
24 Mar 12:47 pm PDT 73 41 WNW 12
24 Mar 11:47 am PDT 73 41 WNW 12
24 Mar 10:52 am PDT 73 41 VRBL 6
24 Mar 9:47 am PDT 68 56 W 7
24 Mar 8:52 am PDT 64 73 CALM
24 Mar 7:52 am PDT 61 77 CALM
24 Mar 6:47 am PDT 54 82 CALM
23 Mar 7:47 pm PDT 64 73 WNW 14
23 Mar 6:50 pm PDT 66 60 WNW 14
23 Mar 4:50 pm PDT 70 43 WNW 12
23 Mar 3:47 pm PDT 70 60 WNW 12
23 Mar 2:55 pm PDT 70 60 SSW 12
23 Mar 1:47 pm PDT 72 50 W 12
23 Mar 12:47 pm PDT 73 44 NW 7
23 Mar 11:58 am PDT 73 47 VRBL 6
23 Mar 10:52 am PDT 70 53 VRBL 6
23 Mar 9:53 am PDT 68 56 VRBL 6
23 Mar 8:47 am PDT 64 68 CALM
23 Mar 7:50 am PDT 57 88 CALM
23 Mar 6:49 am PDT 54 94 CALM

http://www.wrh.noaa.gov/mesowest/getobext.php?wfo=lox&sid=KTOA&num=168&raw=0&dbn=m